Main page
METAR-TAF:

METAR-TAF

Airports :

Santa Rosa International Airport

Machala, Ecuador

latitude: 03-26-07S, longitude: 079-58-40W, elevation: 52 m

Current weather observation

The report was made 1 hour and 4 minutes ago, at 17:00 UTC
Wind 3 kt from the South/Southwest
Temperature 24°C
Humidity 89%
Pressure 1014 hPa
Visibility 10 km or more
Few clouds at a height of 1000 ft
Overcast at a height of 2000 ft

METAR: SERO 241700Z 20003KT 9999 FEW010 OVC020 24/22 Q1014 RMK A2996

Time: 13:04 (18:04 UTC)


TAF: missing

Weather observations and forecasts of more than 4000 airports (METAR and TAF reports).

The available stations are represented by yellow and red dots on the map.

Hover mouse over dot to see the name of the station.

Then click to see weather observations and forecasts.

To change the map : click on the green buttons with a black cross to zoom in, on the green button with a dash to zoom out, or on the green arrows for adjacent maps.


METAR-TAF: